Time;durP1;ratioP1;P1;durP2;ratioP2;P2;SDS_P1;SDS_P2;PMS_P1;PMS_P2;Temp;Humidity;BMP_temperature;BMP_pressure;BME280_temperature;BME280_humidity;BME280_pressure;Samples;Min_cycle;Max_cycle;Signal;HPM_P1;HPM_P2
2022/12/01 00:01:19;;;;;;;27.47;14.87;;;6.50;1.00;;;;;;5065297;28;20203;-69
2022/12/01 00:03:44;;;;;;;24.60;14.50;;;6.40;1.00;;;;;;5061657;28;20232;-69
2022/12/01 00:06:18;;;;;;;29.23;14.70;;;6.50;1.00;;;;;;5061741;28;20255;-70
2022/12/01 00:11:33;;;;;;;26.10;14.13;;;6.40;1.00;;;;;;5070293;28;20504;-70
2022/12/01 00:13:58;;;;;;;26.17;13.80;;;6.40;1.00;;;;;;5070803;28;20458;-71
2022/12/01 00:16:24;;;;;;;27.93;15.30;;;6.40;1.00;;;;;;5071824;28;20433;-71
2022/12/01 00:18:51;;;;;;;26.30;13.77;;;6.40;1.00;;;;;;5063089;28;20504;-71
2022/12/01 00:21:19;;;;;;;28.03;15.97;;;6.40;1.00;;;;;;5061069;28;20582;-70
2022/12/01 00:23:46;;;;;;;31.30;15.00;;;6.40;1.00;;;;;;5069341;28;20956;-71
2022/12/01 00:26:12;;;;;;;28.47;15.53;;;6.40;1.00;;;;;;5064708;28;20422;-71
2022/12/01 00:28:38;;;;;;;28.53;15.17;;;6.30;1.00;;;;;;5070616;28;20434;-71
2022/12/01 00:31:11;;;;;;;28.50;15.00;;;6.30;1.00;;;;;;5062588;28;20869;-68
2022/12/01 00:33:37;;;;;;;30.27;15.47;;;6.30;1.00;;;;;;5069239;28;20193;-70
2022/12/01 00:36:04;;;;;;;24.70;14.57;;;6.30;1.00;;;;;;5067671;28;20418;-71
2022/12/01 00:38:30;;;;;;;32.90;16.00;;;6.30;1.00;;;;;;5070496;28;20487;-70
2022/12/01 00:40:56;;;;;;;29.77;16.00;;;6.40;1.00;;;;;;5058977;28;20428;-71
2022/12/01 00:43:23;;;;;;;24.50;13.77;;;6.40;1.00;;;;;;5062427;28;20462;-70
2022/12/01 00:45:48;;;;;;;33.03;14.70;;;6.30;1.00;;;;;;5066450;28;20434;-71
2022/12/01 00:48:14;;;;;;;28.60;15.90;;;6.30;1.00;;;;;;5071642;28;20833;-71
2022/12/01 00:50:40;;;;;;;28.27;15.50;;;;;;;;;;5076424;28;20814;-71
2022/12/01 00:53:06;;;;;;;28.90;16.07;;;6.20;1.00;;;;;;5070629;28;20199;-70
2022/12/01 00:55:31;;;;;;;31.63;17.27;;;6.20;1.00;;;;;;5061528;28;20420;-71
2022/12/01 00:57:57;;;;;;;27.97;15.30;;;6.20;1.00;;;;;;5071229;28;20176;-70
2022/12/01 01:00:23;;;;;;;30.47;15.33;;;6.20;1.00;;;;;;5085436;28;20169;-71
2022/12/01 01:02:48;;;;;;;31.60;15.87;;;6.20;1.00;;;;;;5069007;28;20286;-71
2022/12/01 01:05:14;;;;;;;30.13;15.47;;;6.20;1.00;;;;;;5069731;28;20185;-70
2022/12/01 01:07:39;;;;;;;29.50;16.30;;;6.20;1.00;;;;;;5070095;28;20199;-71
2022/12/01 01:10:05;;;;;;;28.87;15.83;;;6.20;1.00;;;;;;5062308;28;20658;-69
2022/12/01 01:12:31;;;;;;;31.63;15.73;;;6.30;1.00;;;;;;5084109;28;20571;-71
2022/12/01 01:14:57;;;;;;;29.87;16.30;;;6.20;1.00;;;;;;5066278;28;20429;-70
2022/12/01 01:17:22;;;;;;;31.97;16.23;;;6.30;1.00;;;;;;5070243;28;20253;-71
2022/12/01 01:19:48;;;;;;;29.33;15.27;;;6.30;1.00;;;;;;5060565;28;20185;-71
2022/12/01 01:22:13;;;;;;;32.27;16.27;;;6.30;1.00;;;;;;5065180;28;20218;-71
2022/12/01 01:24:39;;;;;;;31.70;17.23;;;6.30;1.00;;;;;;5069128;28;20578;-70
2022/12/01 01:27:07;;;;;;;28.00;15.00;;;6.30;1.00;;;;;;5061383;28;20560;-71
2022/12/01 01:29:32;;;;;;;27.33;15.50;;;6.20;1.00;;;;;;5060676;28;20384;-70
2022/12/01 01:31:58;;;;;;;30.80;16.90;;;6.20;1.00;;;;;;5068614;28;20454;-71
2022/12/01 01:34:23;;;;;;;31.00;15.87;;;6.20;1.00;;;;;;5068378;28;20196;-71
2022/12/01 01:36:49;;;;;;;31.83;16.77;;;6.20;1.00;;;;;;5067388;28;20211;-71
2022/12/01 01:39:15;;;;;;;30.87;15.70;;;6.10;1.00;;;;;;5070416;28;20172;-71
2022/12/01 01:41:40;;;;;;;31.07;15.77;;;6.10;1.00;;;;;;5073860;28;20227;-67
2022/12/01 01:44:43;;;;;;;30.80;15.80;;;6.10;1.00;;;;;;5066672;28;20684;-70
2022/12/01 01:47:09;;;;;;;33.70;16.83;;;6.10;1.00;;;;;;5063110;28;20199;-70
2022/12/01 01:49:34;;;;;;;30.13;15.90;;;6.10;1.00;;;;;;5069048;28;20940;-71
2022/12/01 01:52:03;;;;;;;30.03;16.70;;;6.10;1.00;;;;;;5060432;28;20192;-70
2022/12/01 01:54:34;;;;;;;30.17;15.53;;;6.10;1.00;;;;;;5083663;28;20208;-71
2022/12/01 01:57:03;;;;;;;27.83;14.83;;;6.10;1.00;;;;;;5066371;28;20764;-70
2022/12/01 01:59:53;;;;;;;32.80;17.30;;;6.10;1.00;;;;;;5068960;28;20433;-71
2022/12/01 02:02:19;;;;;;;30.47;15.67;;;6.10;1.00;;;;;;5066215;28;20828;-70
2022/12/01 02:04:48;;;;;;;32.90;16.43;;;6.00;1.00;;;;;;5067419;28;20507;-70
2022/12/01 02:07:17;;;;;;;31.80;17.50;;;6.10;1.00;;;;;;5069304;28;20252;-71
2022/12/01 02:09:42;;;;;;;30.73;16.17;;;6.10;1.00;;;;;;5059869;28;20434;-71
2022/12/01 02:12:31;;;;;;;33.47;16.70;;;6.00;1.00;;;;;;5084283;28;21014;-70
2022/12/01 02:15:15;;;;;;;30.77;16.87;;;6.00;1.00;;;;;;5067882;28;20606;-70
2022/12/01 02:18:11;;;;;;;31.13;15.50;;;6.00;1.00;;;;;;5069786;28;21114;-71
2022/12/01 02:21:09;;;;;;;31.33;16.87;;;5.90;1.00;;;;;;5030707;28;20439;-70
2022/12/01 02:23:53;;;;;;;29.47;14.87;;;5.90;1.00;;;;;;5060744;28;20475;-70
2022/12/01 02:26:43;;;;;;;32.90;17.50;;;5.90;1.00;;;;;;5069036;28;20407;-71
2022/12/01 02:29:37;;;;;;;30.50;16.10;;;5.90;1.00;;;;;;5059018;28;20415;-70
2022/12/01 02:32:15;;;;;;;33.10;16.93;;;6.00;1.00;;;;;;5063531;28;20461;-71
2022/12/01 02:35:07;;;;;;;29.47;16.00;;;6.00;1.00;;;;;;5083046;28;20450;-71
2022/12/01 02:37:49;;;;;;;32.40;16.07;;;5.90;1.00;;;;;;5059905;28;20430;-71
2022/12/01 02:40:42;;;;;;;30.80;15.33;;;6.00;1.00;;;;;;5062181;28;20549;-71
2022/12/01 02:43:22;;;;;;;27.53;14.27;;;6.00;1.00;;;;;;5059937;28;20454;-71
2022/12/01 02:46:02;;;;;;;28.60;15.87;;;6.10;1.00;;;;;;5063393;28;20905;-70
2022/12/01 02:48:37;;;;;;;29.07;15.90;;;6.10;1.00;;;;;;5068922;28;20422;-70
2022/12/01 02:51:29;;;;;;;30.07;14.67;;;6.10;1.00;;;;;;5053026;28;20517;-70
2022/12/01 02:53:59;;;;;;;25.60;14.33;;;6.10;1.00;;;;;;5066789;28;20533;-71
2022/12/01 02:56:25;;;;;;;26.43;14.47;;;6.10;1.00;;;;;;5059178;28;20538;-70
2022/12/01 02:58:50;;;;;;;27.27;14.47;;;6.10;1.00;;;;;;5067584;28;20459;-71
2022/12/01 03:01:41;;;;;;;27.67;15.17;;;6.20;1.00;;;;;;5061974;28;20241;-71
2022/12/01 03:04:31;;;;;;;24.70;13.80;;;6.30;1.00;;;;;;5067915;28;20200;-71
2022/12/01 03:06:59;;;;;;;22.67;13.20;;;6.30;1.00;;;;;;5067899;28;20505;-70
2022/12/01 03:09:43;;;;;;;27.07;14.20;;;6.30;1.00;;;;;;5059201;28;20435;-71
2022/12/01 03:12:29;;;;;;;19.10;10.17;;;6.30;1.00;;;;;;5066236;28;20466;-70
2022/12/01 03:15:14;;;;;;;18.30;10.80;;;6.20;1.00;;;;;;5067779;28;20445;-71
2022/12/01 03:17:48;;;;;;;17.90;9.93;;;6.10;1.00;;;;;;5084101;28;20406;-69
2022/12/01 03:20:25;;;;;;;19.90;11.07;;;6.10;1.00;;;;;;5056177;28;20427;-69
2022/12/01 03:22:57;;;;;;;19.63;10.90;;;6.10;1.00;;;;;;5058351;28;20435;-71
2022/12/01 03:25:23;;;;;;;20.30;11.23;;;6.10;1.00;;;;;;5067136;28;20845;-70
2022/12/01 03:27:55;;;;;;;19.27;10.70;;;6.10;1.00;;;;;;5068746;28;20422;-71
2022/12/01 03:30:23;;;;;;;20.93;11.93;;;6.10;1.00;;;;;;5062840;28;20841;-71
2022/12/01 03:32:53;;;;;;;20.77;11.50;;;6.10;1.00;;;;;;5065332;28;20899;-71
2022/12/01 03:35:23;;;;;;;19.33;11.27;;;6.10;1.00;;;;;;5058805;28;20415;-71
2022/12/01 03:37:54;;;;;;;21.30;11.23;;;6.10;1.00;;;;;;5065967;28;20905;-71
2022/12/01 03:40:26;;;;;;;18.27;10.57;;;6.10;1.00;;;;;;5062615;28;20419;-70
2022/12/01 03:42:56;;;;;;;19.57;10.93;;;6.10;1.00;;;;;;5082806;28;20431;-71
2022/12/01 03:45:54;;;;;;;20.67;11.00;;;6.10;1.00;;;;;;5059142;28;20940;-71
2022/12/01 03:48:23;;;;;;;19.97;10.37;;;6.10;1.00;;;;;;5057520;28;20839;-68
2022/12/01 03:51:22;;;;;;;18.60;9.40;;;6.10;1.00;;;;;;5058675;28;20459;-71
2022/12/01 03:53:56;;;;;;;16.50;9.67;;;6.10;1.00;;;;;;5062225;28;21032;-71
2022/12/01 03:56:28;;;;;;;20.63;10.60;;;6.10;1.00;;;;;;5057160;28;20424;-70
2022/12/01 03:58:56;;;;;;;16.30;9.67;;;6.10;1.00;;;;;;5064530;28;20430;-71
2022/12/01 04:01:22;;;;;;;16.50;9.60;;;6.10;1.00;;;;;;5067169;28;20455;-71
2022/12/01 04:03:48;;;;;;;16.77;10.60;;;6.10;1.00;;;;;;5063381;28;20540;-71
2022/12/01 04:06:14;;;;;;;17.33;9.80;;;6.10;1.00;;;;;;5059741;28;20921;-71
2022/12/01 04:08:40;;;;;;;15.10;9.80;;;6.10;1.00;;;;;;5067942;28;20190;-70
2022/12/01 04:12:28;;;;;;;17.97;10.10;;;6.10;1.00;;;;;;5061813;28;20448;-71
2022/12/01 04:13:51;;;;;;;16.63;10.23;;;6.10;1.00;;;;;;5066912;28;20205;-71
2022/12/01 04:16:17;;;;;;;16.97;10.00;;;6.20;1.00;;;;;;5066439;28;21007;-71
2022/12/01 04:18:42;;;;;;;17.10;10.40;;;6.20;1.00;;;;;;5060529;28;20187;-71
2022/12/01 04:21:08;;;;;;;19.03;9.87;;;6.10;1.00;;;;;;5061530;28;20173;-71
2022/12/01 04:26:18;;;;;;;15.70;10.17;;;6.20;1.00;;;;;;5065602;28;20187;-70
2022/12/01 04:28:44;;;;;;;17.63;9.80;;;6.20;1.00;;;;;;5064119;28;20824;-71
2022/12/01 04:31:09;;;;;;;16.70;10.10;;;6.10;1.00;;;;;;5069289;28;20372;-71
2022/12/01 04:33:34;;;;;;;17.20;10.00;;;6.20;1.00;;;;;;5062584;28;20201;-70
2022/12/01 04:36:00;;;;;;;19.07;10.00;;;6.10;1.00;;;;;;5085997;28;20172;-71
2022/12/01 04:38:26;;;;;;;15.73;10.07;;;6.20;1.00;;;;;;5063932;28;20663;-71
2022/12/01 04:40:52;;;;;;;16.53;9.77;;;6.20;1.00;;;;;;5066128;28;20177;-67
2022/12/01 04:43:18;;;;;;;15.50;9.53;;;6.20;1.00;;;;;;5060934;28;20481;-71
2022/12/01 04:45:43;;;;;;;15.30;9.60;;;6.20;1.00;;;;;;5066173;28;20563;-70
2022/12/01 04:48:09;;;;;;;17.53;9.70;;;6.20;1.00;;;;;;5066401;28;20200;-71
2022/12/01 04:50:34;;;;;;;12.07;8.50;;;6.30;1.00;;;;;;5057232;28;20260;-70
2022/12/01 04:53:00;;;;;;;18.30;10.37;;;6.30;1.00;;;;;;5070801;28;20318;-71
2022/12/01 04:55:26;;;;;;;13.90;9.20;;;6.40;1.00;;;;;;5068196;28;20176;-70
2022/12/01 04:57:51;;;;;;;16.20;9.77;;;6.30;1.00;;;;;;5071507;28;20672;-71
2022/12/01 05:00:17;;;;;;;14.73;9.63;;;6.30;1.00;;;;;;5064567;28;20707;-71
2022/12/01 05:02:43;;;;;;;15.93;9.40;;;6.30;1.00;;;;;;5068858;28;20219;-71
2022/12/01 05:05:10;;;;;;;20.10;11.00;;;6.30;1.00;;;;;;5060196;28;20505;-68
2022/12/01 05:07:35;;;;;;;14.30;9.00;;;6.30;1.00;;;;;;5070610;28;20418;-69
2022/12/01 05:10:01;;;;;;;16.57;10.10;;;6.30;1.00;;;;;;5068145;28;20823;-71
2022/12/01 05:12:26;;;;;;;15.87;9.90;;;6.30;1.00;;;;;;5060950;28;20314;-70
2022/12/01 05:14:52;;;;;;;16.57;10.00;;;6.30;1.00;;;;;;5070879;28;20176;-71
2022/12/01 05:17:17;;;;;;;15.83;9.13;;;6.20;1.00;;;;;;5061507;28;20547;-71
2022/12/01 05:22:27;;;;;;;13.30;8.70;;;6.20;1.00;;;;;;5063376;28;20436;-70
2022/12/01 05:24:53;;;;;;;17.00;9.83;;;6.20;1.00;;;;;;5068093;28;20430;-70
2022/12/01 05:27:18;;;;;;;17.30;9.77;;;6.20;1.00;;;;;;5069423;28;20203;-70
2022/12/01 05:29:44;;;;;;;16.37;9.90;;;6.30;1.00;;;;;;5068565;28;20267;-70
2022/12/01 05:32:09;;;;;;;14.77;9.20;;;6.30;1.00;;;;;;5067991;28;20671;-71
2022/12/01 05:34:35;;;;;;;15.93;9.17;;;6.30;1.00;;;;;;5061559;28;20200;-70
2022/12/01 05:37:00;;;;;;;16.47;9.33;;;6.30;1.00;;;;;;5068941;28;20180;-71
2022/12/01 05:39:26;;;;;;;16.10;9.60;;;6.30;1.00;;;;;;5070035;28;20165;-70
2022/12/01 05:41:52;;;;;;;15.70;9.00;;;6.20;1.00;;;;;;5065565;28;20180;-70
2022/12/01 05:44:18;;;;;;;15.27;9.27;;;6.20;1.00;;;;;;5059572;28;20736;-71
2022/12/01 05:46:44;;;;;;;18.00;10.13;;;6.20;1.00;;;;;;5059102;28;20489;-70
2022/12/01 05:49:10;;;;;;;16.30;9.67;;;6.20;1.00;;;;;;5080273;28;20439;-71
2022/12/01 05:51:35;;;;;;;16.57;10.53;;;6.20;1.00;;;;;;5058913;28;20201;-71
2022/12/01 05:54:01;;;;;;;18.13;9.80;;;6.20;1.00;;;;;;5065784;28;20196;-71
2022/12/01 05:56:27;;;;;;;17.40;9.93;;;6.20;1.00;;;;;;5064051;28;20183;-71
2022/12/01 05:58:52;;;;;;;15.30;9.27;;;6.20;1.00;;;;;;5068345;28;20251;-71
2022/12/01 06:01:18;;;;;;;18.43;10.40;;;6.20;1.00;;;;;;5067731;28;20589;-71
2022/12/01 06:03:43;;;;;;;16.10;9.70;;;6.20;1.00;;;;;;5067117;28;20204;-71
2022/12/01 06:06:09;;;;;;;18.30;10.37;;;6.20;1.00;;;;;;5056531;28;20177;-71
2022/12/01 06:08:34;;;;;;;19.03;10.33;;;6.10;1.00;;;;;;5065843;28;20181;-71
2022/12/01 06:11:00;;;;;;;16.13;9.33;;;6.20;1.00;;;;;;5063903;28;20574;-69
2022/12/01 06:13:25;;;;;;;20.70;11.03;;;6.20;1.00;;;;;;5080217;22;20593;-72
2022/12/01 06:15:58;;;;;;;15.37;9.73;;;6.20;1.00;;;;;;5048195;28;20648;-72
2022/12/01 06:18:29;;;;;;;17.70;9.87;;;6.20;1.00;;;;;;5046198;28;20524;-71
2022/12/01 06:20:55;;;;;;;17.77;10.70;;;6.20;1.00;;;;;;5038294;28;20794;-71
2022/12/01 06:23:20;;;;;;;17.90;10.40;;;6.20;1.00;;;;;;5047123;28;20425;-72
2022/12/01 06:25:46;;;;;;;18.77;9.67;;;6.20;1.00;;;;;;5028119;28;20319;-71
2022/12/01 06:28:11;;;;;;;19.20;11.23;;;6.20;1.00;;;;;;5029084;28;20193;-72
2022/12/01 06:30:37;;;;;;;18.90;11.40;;;6.40;1.00;;;;;;5027981;28;20652;-72
2022/12/01 06:33:02;;;;;;;20.40;10.53;;;6.30;1.00;;;;;;5028004;28;20182;-71
2022/12/01 06:35:28;;;;;;;18.10;10.47;;;6.20;1.00;;;;;;5028880;28;20189;-72
2022/12/01 06:37:53;;;;;;;18.53;11.10;;;6.20;1.00;;;;;;5027833;28;20236;-72
2022/12/01 06:40:19;;;;;;;14.80;10.13;;;6.20;1.00;;;;;;5028276;28;20545;-72
2022/12/01 06:42:45;;;;;;;16.90;10.67;;;6.20;1.00;;;;;;5026458;28;20177;-72
2022/12/01 06:45:10;;;;;;;20.57;11.07;;;6.30;1.00;;;;;;5025024;28;20240;-71
2022/12/01 06:47:36;;;;;;;17.83;11.07;;;6.30;1.00;;;;;;5028822;28;20186;-72
2022/12/01 06:50:04;;;;;;;17.43;10.37;;;6.30;1.00;;;;;;5027203;28;20178;-69
2022/12/01 06:52:29;;;;;;;18.73;11.00;;;6.30;1.00;;;;;;5028301;28;20198;-72
2022/12/01 06:54:55;;;;;;;19.00;10.63;;;6.30;1.00;;;;;;5025678;28;20513;-70
2022/12/01 06:57:20;;;;;;;17.83;10.43;;;6.20;1.00;;;;;;5029004;28;20181;-72
2022/12/01 06:59:46;;;;;;;20.27;11.70;;;6.30;1.00;;;;;;5027109;28;20181;-72
2022/12/01 07:02:12;;;;;;;17.80;10.80;;;6.30;1.00;;;;;;5028549;28;20185;-71
2022/12/01 07:04:37;;;;;;;22.13;11.70;;;6.30;1.00;;;;;;5027185;28;20623;-71
2022/12/01 07:07:06;;;;;;;19.30;10.90;;;6.20;1.00;;;;;;5028855;28;20189;-71
2022/12/01 07:09:32;;;;;;;19.37;11.70;;;6.20;1.00;;;;;;5011599;28;20725;-71
2022/12/01 07:11:58;;;;;;;19.10;11.33;;;6.30;1.00;;;;;;5017369;28;20544;-72
2022/12/01 07:14:25;;;;;;;20.00;11.70;;;6.30;1.00;;;;;;5028582;28;20543;-71
2022/12/01 07:16:51;;;;;;;20.63;11.73;;;6.40;1.00;;;;;;5019504;28;20174;-72
2022/12/01 07:19:17;;;;;;;21.80;11.90;;;6.30;1.00;;;;;;5029428;28;20504;-71
2022/12/01 07:21:42;;;;;;;19.67;12.13;;;6.30;1.00;;;;;;5016524;28;20958;-70
2022/12/01 07:24:08;;;;;;;18.20;10.80;;;6.30;1.00;;;;;;5021073;28;20320;-72
2022/12/01 07:26:34;;;;;;;20.50;11.63;;;6.30;1.00;;;;;;5026386;28;20178;-72
2022/12/01 07:28:59;;;;;;;21.93;12.03;;;6.30;1.00;;;;;;5022260;28;20169;-71
2022/12/01 07:31:25;;;;;;;18.00;11.30;;;6.40;1.00;;;;;;5024188;28;20198;-72
2022/12/01 07:33:51;;;;;;;23.03;11.03;;;6.40;1.00;;;;;;5026632;28;20669;-72
2022/12/01 07:36:16;;;;;;;22.60;11.97;;;6.40;1.00;;;;;;5025359;28;20624;-71
2022/12/01 07:38:42;;;;;;;24.60;12.30;;;6.40;1.00;;;;;;5026957;28;21075;-72
2022/12/01 07:41:13;;;;;;;21.27;11.57;;;6.40;1.00;;;;;;5021482;28;20196;-71
2022/12/01 16:39:13;;;;;;;25.73;12.90;;;5.40;1.00;;;;;;5066845;28;20558;-70
2022/12/01 16:41:42;;;;;;;26.10;13.63;;;5.50;1.00;;;;;;5066786;28;20415;-71
2022/12/01 16:44:09;;;;;;;28.37;14.30;;;5.60;1.00;;;;;;5067373;28;20430;-72
2022/12/01 16:46:34;;;;;;;27.00;14.20;;;5.80;1.00;;;;;;5061018;28;20407;-71
2022/12/01 16:49:00;;;;;;;26.03;14.20;;;5.90;1.00;;;;;;5055345;28;20431;-73
2022/12/01 16:51:25;;;;;;;25.10;13.43;;;6.00;1.00;;;;;;5050157;28;20165;-71
2022/12/01 16:53:51;;;;;;;24.53;12.67;;;6.00;1.00;;;;;;5069911;28;20188;-71
2022/12/01 16:56:16;;;;;;;25.85;13.30;;;6.30;1.00;;;;;;5052086;28;20423;-71
2022/12/01 16:58:43;;;;;;;24.53;13.00;;;6.40;1.00;;;;;;5047283;28;20270;-71
2022/12/01 17:01:09;;;;;;;24.23;13.33;;;6.40;1.00;;;;;;5062983;28;20180;-71
2022/12/01 17:03:36;;;;;;;24.00;12.47;;;6.50;1.00;;;;;;5052871;28;20965;-70
2022/12/01 17:06:03;;;;;;;23.00;13.37;;;6.60;1.00;;;;;;5055323;28;20439;-71
2022/12/01 17:08:29;;;;;;;26.77;13.40;;;6.60;1.00;;;;;;5062729;28;20434;-70
2022/12/01 17:10:55;;;;;;;27.87;12.70;;;6.60;1.00;;;;;;5059446;28;20439;-71
2022/12/01 17:13:24;;;;;;;21.00;12.20;;;6.70;1.00;;;;;;5060546;28;20188;-70
2022/12/01 17:15:52;;;;;;;23.37;12.83;;;6.60;1.00;;;;;;5064063;28;20177;-71
2022/12/01 17:18:19;;;;;;;20.63;12.10;;;6.70;1.00;;;;;;5055435;28;20554;-71
2022/12/01 17:20:54;;;;;;;22.00;12.60;;;6.70;1.00;;;;;;5049832;28;20434;-70
2022/12/01 17:23:19;;;;;;;26.60;13.13;;;6.70;1.00;;;;;;5055368;28;20431;-71
2022/12/01 17:25:45;;;;;;;22.83;13.03;;;6.70;1.00;;;;;;5058074;28;20470;-70
2022/12/01 17:28:10;;;;;;;20.43;13.00;;;6.70;1.00;;;;;;5063046;28;20180;-70
2022/12/01 17:30:36;;;;;;;28.40;14.17;;;6.60;1.00;;;;;;5065626;28;20236;-70
2022/12/01 17:33:02;;;;;;;25.20;13.53;;;6.50;1.00;;;;;;5060159;28;20249;-71
2022/12/01 17:35:27;;;;;;;24.50;12.77;;;6.50;1.00;;;;;;5054523;28;20521;-71
2022/12/01 17:37:53;;;;;;;23.03;13.03;;;6.50;1.00;;;;;;5065830;28;20210;-71
2022/12/01 17:40:19;;;;;;;27.77;13.33;;;6.50;1.00;;;;;;5069155;28;20176;-71
2022/12/01 17:42:44;;;;;;;24.87;13.13;;;6.50;1.00;;;;;;5086077;28;20167;-71
2022/12/01 17:45:10;;;;;;;26.10;13.93;;;6.50;1.00;;;;;;5084475;28;20200;-70
2022/12/01 17:47:35;;;;;;;34.33;18.00;;;6.60;1.00;;;;;;5086467;28;20705;-72
2022/12/01 17:50:01;;;;;;;29.27;15.90;;;6.60;1.00;;;;;;5055511;28;20189;-71
2022/12/01 17:52:28;;;;;;;24.93;15.37;;;6.60;1.00;;;;;;5052536;28;20207;-71
2022/12/01 17:54:54;;;;;;;23.70;14.03;;;6.60;1.00;;;;;;5032208;28;20198;-71
2022/12/01 17:57:19;;;;;;;28.83;15.03;;;6.60;1.00;;;;;;5045969;28;20528;-67
2022/12/01 17:59:45;;;;;;;28.57;17.23;;;6.60;1.00;;;;;;5047511;28;20416;-71
2022/12/01 18:02:12;;;;;;;25.20;14.70;;;6.60;1.00;;;;;;5050668;28;20192;-72
2022/12/01 18:04:38;;;;;;;26.13;14.50;;;6.60;1.00;;;;;;5052326;28;20189;-71
2022/12/01 18:07:03;;;;;;;26.50;14.57;;;6.60;1.00;;;;;;5044578;28;21040;-71
2022/12/01 18:09:29;;;;;;;27.40;14.17;;;6.60;1.00;;;;;;5044216;28;20626;-71
2022/12/01 18:11:55;;;;;;;24.43;14.03;;;6.60;1.00;;;;;;5050522;28;20214;-71
2022/12/01 18:14:21;;;;;;;26.00;13.43;;;6.60;1.00;;;;;;5046627;28;20197;-69
2022/12/01 18:16:47;;;;;;;27.70;15.10;;;6.60;1.00;;;;;;5062572;23;20498;-74
2022/12/01 18:19:12;;;;;;;26.80;14.87;;;6.60;1.00;;;;;;5049736;28;20435;-73
2022/12/01 18:21:39;;;;;;;30.90;15.90;;;6.70;1.00;;;;;;5048388;28;20185;-69
2022/12/01 18:24:07;;;;;;;36.50;19.03;;;6.70;1.00;;;;;;5045311;28;20189;-69
2022/12/01 18:26:34;;;;;;;29.77;15.40;;;6.70;1.00;;;;;;5041564;28;20492;-71
2022/12/01 18:29:03;;;;;;;28.00;16.17;;;6.70;1.00;;;;;;5022369;28;20961;-71
2022/12/01 18:31:29;;;;;;;24.77;14.17;;;6.70;1.00;;;;;;5013941;28;20428;-70
2022/12/01 18:34:03;;;;;;;25.63;15.47;;;6.80;1.00;;;;;;5028564;28;20600;-68
2022/12/01 18:36:30;;;;;;;26.63;15.30;;;6.70;1.00;;;;;;5031119;28;20428;-70
2022/12/01 18:38:58;;;;;;;26.80;14.70;;;6.70;1.00;;;;;;5030862;28;20531;-70
2022/12/01 18:41:24;;;;;;;27.07;15.50;;;6.80;1.00;;;;;;5030496;28;20822;-71
2022/12/01 18:43:50;;;;;;;27.47;14.90;;;6.80;1.00;;;;;;5031801;28;20423;-71
2022/12/01 18:46:17;;;;;;;28.13;14.53;;;6.80;1.00;;;;;;5022926;28;20827;-70
2022/12/01 18:48:44;;;;;;;27.03;15.03;;;6.80;1.00;;;;;;5030769;28;20182;-71
2022/12/01 18:51:10;;;;;;;29.60;16.80;;;6.80;1.00;;;;;;5028171;28;20536;-70
2022/12/01 18:53:36;;;;;;;25.33;14.50;;;6.70;1.00;;;;;;5031756;28;20415;-69
2022/12/01 18:56:07;;;;;;;27.97;15.40;;;6.80;1.00;;;;;;5027554;28;20452;-70
2022/12/01 18:58:33;;;;;;;28.37;15.10;;;6.70;1.00;;;;;;5031501;28;20205;-71
2022/12/01 19:01:00;;;;;;;28.33;15.07;;;6.70;1.00;;;;;;5027074;28;20432;-68
2022/12/01 19:03:31;;;;;;;30.60;16.17;;;6.70;1.00;;;;;;5031324;28;20173;-68
2022/12/01 19:05:57;;;;;;;31.20;15.23;;;6.70;1.00;;;;;;5029304;28;20448;-68
2022/12/01 19:08:23;;;;;;;27.67;14.30;;;6.70;1.00;;;;;;5031237;28;20423;-70
2022/12/01 19:11:02;;;;;;;33.30;16.53;;;6.70;1.00;;;;;;5029889;28;20185;-70
2022/12/01 19:13:30;;;;;;;32.57;15.77;;;6.70;1.00;;;;;;5030179;28;20197;-70
2022/12/01 19:15:56;;;;;;;34.90;16.00;;;6.60;1.00;;;;;;5029122;28;20601;-70
2022/12/01 19:18:21;;;;;;;29.00;15.53;;;6.60;1.00;;;;;;5012129;28;20496;-70
2022/12/01 19:20:47;;;;;;;29.43;16.47;;;6.60;1.00;;;;;;5027006;28;20424;-69
2022/12/01 19:23:13;;;;;;;30.40;16.30;;;6.60;1.00;;;;;;5021871;28;20652;-70
2022/12/01 19:25:38;;;;;;;35.43;17.23;;;6.70;1.00;;;;;;5027091;28;20182;-73
2022/12/01 19:28:04;;;;;;;29.83;16.37;;;6.90;1.00;;;;;;5027912;28;20242;-71
2022/12/01 19:30:30;;;;;;;32.70;17.30;;;6.60;1.00;;;;;;5032387;28;20405;-69
2022/12/01 19:32:56;;;;;;;31.77;17.87;;;6.60;1.00;;;;;;5025399;28;20521;-71
2022/12/01 19:35:21;;;;;;;33.60;17.23;;;6.60;1.00;;;;;;5029254;28;20192;-71
2022/12/01 19:37:46;;;;;;;31.37;17.30;;;6.50;1.00;;;;;;5030150;28;20297;-70
2022/12/01 19:40:13;;;;;;;30.50;16.60;;;6.40;1.00;;;;;;5029505;28;20170;-71
2022/12/01 19:42:39;;;;;;;32.80;17.30;;;6.40;1.00;;;;;;5029529;28;20178;-71
2022/12/01 19:45:05;;;;;;;32.43;16.00;;;6.40;1.00;;;;;;5029902;28;20794;-69
2022/12/01 19:47:31;;;;;;;32.73;17.27;;;6.30;1.00;;;;;;5029764;28;20451;-70
2022/12/01 19:49:57;;;;;;;33.10;16.90;;;6.30;1.00;;;;;;5030263;28;20703;-71
2022/12/01 19:52:23;;;;;;;41.30;19.27;;;6.30;1.00;;;;;;5042031;28;20463;-72
2022/12/01 19:54:48;;;;;;;32.00;16.70;;;6.30;1.00;;;;;;5040468;28;20170;-71
2022/12/01 19:57:14;;;;;;;34.80;18.20;;;6.30;1.00;;;;;;5024041;28;20204;-71
2022/12/01 19:59:39;;;;;;;36.83;17.80;;;6.30;1.00;;;;;;5030101;28;20178;-71
2022/12/01 20:02:05;;;;;;;33.20;17.73;;;6.40;1.00;;;;;;5029873;28;20201;-70
2022/12/01 20:04:31;;;;;;;33.60;17.23;;;6.30;1.00;;;;;;5030149;28;20663;-71
2022/12/01 20:06:56;;;;;;;37.57;18.40;;;6.40;1.00;;;;;;5028610;28;20197;-71
2022/12/01 20:09:22;;;;;;;35.90;17.40;;;6.40;1.00;;;;;;5029840;28;20307;-71
2022/12/01 20:11:47;;;;;;;35.40;17.10;;;6.40;1.00;;;;;;5027872;28;20182;-71
2022/12/01 20:14:13;;;;;;;34.63;17.20;;;6.40;1.00;;;;;;5028696;28;20177;-71
2022/12/01 20:16:38;;;;;;;37.80;17.17;;;6.40;1.00;;;;;;5028544;28;20288;-71
2022/12/01 20:19:05;;;;;;;39.30;18.30;;;6.40;1.00;;;;;;5029455;28;20568;-71
2022/12/01 20:21:34;;;;;;;39.23;18.60;;;6.40;1.00;;;;;;5008497;28;20652;-72
2022/12/01 20:24:02;;;;;;;35.60;18.83;;;6.40;1.00;;;;;;5029267;28;20439;-71
2022/12/01 20:26:34;;;;;;;42.23;19.10;;;6.40;1.00;;;;;;5027093;28;20869;-71
2022/12/01 20:29:11;;;;;;;34.67;19.13;;;6.40;1.00;;;;;;5029035;28;20413;-70
2022/12/01 20:31:38;;;;;;;36.73;18.90;;;6.40;1.00;;;;;;5029933;28;20941;-71
2022/12/01 20:34:12;;;;;;;39.17;18.00;;;6.40;1.00;;;;;;5029502;28;20420;-70
2022/12/01 20:36:39;;;;;;;41.17;18.40;;;6.30;1.00;;;;;;5026975;28;20454;-71
2022/12/01 20:39:06;;;;;;;37.53;18.57;;;6.30;1.00;;;;;;5026827;28;20472;-71
2022/12/01 20:41:31;;;;;;;36.30;17.40;;;6.30;1.00;;;;;;5027465;28;20497;-71
2022/12/01 20:43:57;;;;;;;34.07;16.33;;;6.30;1.00;;;;;;5027997;28;20963;-70
2022/12/01 20:46:23;;;;;;;38.80;19.10;;;6.30;1.00;;;;;;5023649;28;20378;-71
2022/12/01 20:48:48;;;;;;;34.53;17.60;;;6.20;1.00;;;;;;5029156;28;20174;-71
2022/12/01 20:51:14;;;;;;;36.87;18.63;;;6.30;1.00;;;;;;5026541;28;20178;-68
2022/12/01 20:53:40;;;;;;;37.07;18.70;;;6.20;1.00;;;;;;5028766;28;20223;-72
2022/12/01 20:56:08;;;;;;;38.17;18.70;;;6.20;1.00;;;;;;5027250;28;20453;-72
2022/12/01 20:58:35;;;;;;;37.30;17.93;;;6.30;1.00;;;;;;5028565;28;20967;-70
2022/12/01 21:01:08;;;;;;;36.90;18.80;;;6.30;1.00;;;;;;5026428;28;21005;-68
2022/12/01 21:03:36;;;;;;;37.03;18.50;;;6.30;1.00;;;;;;5025518;28;20401;-71
2022/12/01 21:06:01;;;;;;;38.50;18.60;;;6.30;1.00;;;;;;5017845;28;20448;-70
2022/12/01 21:08:27;;;;;;;40.20;19.93;;;6.20;1.00;;;;;;5027503;28;20578;-70
2022/12/01 21:10:52;;;;;;;41.27;18.13;;;6.20;1.00;;;;;;5027762;28;20174;-67
2022/12/01 21:13:43;;;;;;;40.07;18.90;;;6.20;1.00;;;;;;5028043;28;20182;-71
2022/12/01 21:16:14;;;;;;;41.00;17.97;;;6.10;1.00;;;;;;5021691;28;20211;-71
2022/12/01 21:18:51;;;;;;;41.17;19.57;;;6.20;1.00;;;;;;5027100;28;20456;-71
2022/12/01 21:21:28;;;;;;;43.57;18.93;;;6.20;1.00;;;;;;5024594;28;20442;-71
2022/12/01 21:24:12;;;;;;;38.23;18.00;;;6.20;1.00;;;;;;5021060;28;20449;-71
2022/12/01 21:26:59;;;;;;;40.43;18.53;;;6.30;1.00;;;;;;5030659;28;20464;-71
2022/12/01 21:29:38;;;;;;;41.13;18.83;;;6.20;1.00;;;;;;5030053;28;20862;-71
2022/12/01 21:32:30;;;;;;;39.73;18.53;;;6.20;1.00;;;;;;5027955;28;20954;-71
2022/12/01 21:35:14;;;;;;;43.97;19.73;;;6.20;1.00;;;;;;5031914;28;20495;-71
2022/12/01 21:37:39;;;;;;;41.80;18.03;;;6.20;1.00;;;;;;5012739;28;20459;-71
2022/12/01 21:40:18;;;;;;;38.83;18.77;;;6.20;1.00;;;;;;5031323;28;20413;-68
2022/12/01 21:42:44;;;;;;;39.43;18.27;;;6.20;1.00;;;;;;5030557;28;20174;-71
2022/12/01 21:45:26;;;;;;;36.33;17.87;;;6.20;1.00;;;;;;5031025;28;20434;-69
2022/12/01 21:47:56;;;;;;;39.23;18.80;;;6.20;1.00;;;;;;5030651;28;20440;-70
2022/12/01 21:50:23;;;;;;;39.80;19.80;;;6.20;1.00;;;;;;5028909;28;20436;-72
2022/12/01 21:52:49;;;;;;;41.07;20.83;;;6.20;1.00;;;;;;5031441;28;20413;-71
2022/12/01 21:55:14;;;;;;;39.37;19.07;;;6.20;1.00;;;;;;5027490;28;20432;-71
2022/12/01 21:57:53;;;;;;;48.80;22.70;;;6.20;1.00;;;;;;5027726;28;20470;-69
2022/12/01 22:00:35;;;;;;;46.20;22.10;;;6.30;1.00;;;;;;5032149;28;20448;-71